sensor_id;sensor_type;location;lat;lon;timestamp;temperature;humidity
44607;DHT22;30315;46.072;14.474;2022-12-07T00:01:35;8.00;86.40
44607;DHT22;30315;46.072;14.474;2022-12-07T00:04:04;8.10;86.60
44607;DHT22;30315;46.072;14.474;2022-12-07T00:06:36;8.00;86.70
44607;DHT22;30315;46.072;14.474;2022-12-07T00:09:05;8.10;87.00
44607;DHT22;30315;46.072;14.474;2022-12-07T00:11:33;8.10;87.00
44607;DHT22;30315;46.072;14.474;2022-12-07T00:14:02;8.20;87.10
44607;DHT22;30315;46.072;14.474;2022-12-07T00:16:31;8.10;87.30
44607;DHT22;30315;46.072;14.474;2022-12-07T00:18:58;8.00;87.40
44607;DHT22;30315;46.072;14.474;2022-12-07T00:21:28;8.20;87.50
44607;DHT22;30315;46.072;14.474;2022-12-07T00:23:57;8.20;87.30
44607;DHT22;30315;46.072;14.474;2022-12-07T00:26:32;8.10;86.90
44607;DHT22;30315;46.072;14.474;2022-12-07T00:29:18;8.00;86.70
44607;DHT22;30315;46.072;14.474;2022-12-07T00:31:45;8.20;86.60
44607;DHT22;30315;46.072;14.474;2022-12-07T00:34:15;8.50;86.40
44607;DHT22;30315;46.072;14.474;2022-12-07T00:36:42;8.10;86.40
44607;DHT22;30315;46.072;14.474;2022-12-07T00:39:09;8.10;86.60
44607;DHT22;30315;46.072;14.474;2022-12-07T00:41:36;7.90;86.10
44607;DHT22;30315;46.072;14.474;2022-12-07T00:44:05;8.10;86.40
44607;DHT22;30315;46.072;14.474;2022-12-07T00:46:32;8.10;86.30
44607;DHT22;30315;46.072;14.474;2022-12-07T00:48:59;8.10;86.40
44607;DHT22;30315;46.072;14.474;2022-12-07T00:51:26;8.20;86.30
44607;DHT22;30315;46.072;14.474;2022-12-07T00:53:53;8.10;86.20
44607;DHT22;30315;46.072;14.474;2022-12-07T00:56:25;8.10;85.90
44607;DHT22;30315;46.072;14.474;2022-12-07T00:58:58;8.20;85.70
44607;DHT22;30315;46.072;14.474;2022-12-07T01:01:28;8.10;84.80
44607;DHT22;30315;46.072;14.474;2022-12-07T01:03:56;8.10;84.90
44607;DHT22;30315;46.072;14.474;2022-12-07T01:06:25;8.10;83.60
44607;DHT22;30315;46.072;14.474;2022-12-07T01:08:53;8.00;83.60
44607;DHT22;30315;46.072;14.474;2022-12-07T01:11:23;8.10;83.40
44607;DHT22;30315;46.072;14.474;2022-12-07T01:13:52;8.10;83.20
44607;DHT22;30315;46.072;14.474;2022-12-07T01:16:20;8.10;83.30
44607;DHT22;30315;46.072;14.474;2022-12-07T01:18:52;8.10;83.30
44607;DHT22;30315;46.072;14.474;2022-12-07T01:21:22;8.00;83.30
44607;DHT22;30315;46.072;14.474;2022-12-07T01:23:50;8.10;84.20
44607;DHT22;30315;46.072;14.474;2022-12-07T01:26:20;8.20;83.30
44607;DHT22;30315;46.072;14.474;2022-12-07T01:28:48;8.10;83.00
44607;DHT22;30315;46.072;14.474;2022-12-07T01:31:18;8.20;82.40
44607;DHT22;30315;46.072;14.474;2022-12-07T01:33:48;8.10;81.40
44607;DHT22;30315;46.072;14.474;2022-12-07T01:38:50;8.10;80.90
44607;DHT22;30315;46.072;14.474;2022-12-07T01:41:21;8.10;80.10
44607;DHT22;30315;46.072;14.474;2022-12-07T01:46:34;8.00;79.50
44607;DHT22;30315;46.072;14.474;2022-12-07T01:49:03;7.90;79.50
44607;DHT22;30315;46.072;14.474;2022-12-07T01:51:32;8.00;79.10
44607;DHT22;30315;46.072;14.474;2022-12-07T01:54:01;8.00;78.80
44607;DHT22;30315;46.072;14.474;2022-12-07T01:56:29;8.00;78.80
44607;DHT22;30315;46.072;14.474;2022-12-07T01:58:57;7.90;79.10
44607;DHT22;30315;46.072;14.474;2022-12-07T02:01:26;7.90;78.70
44607;DHT22;30315;46.072;14.474;2022-12-07T02:03:53;7.90;79.40
44607;DHT22;30315;46.072;14.474;2022-12-07T02:06:23;8.00;79.70
44607;DHT22;30315;46.072;14.474;2022-12-07T02:08:52;8.00;79.30
44607;DHT22;30315;46.072;14.474;2022-12-07T02:11:20;7.90;78.50
44607;DHT22;30315;46.072;14.474;2022-12-07T02:13:47;7.90;78.80
44607;DHT22;30315;46.072;14.474;2022-12-07T02:19:33;7.90;79.20
44607;DHT22;30315;46.072;14.474;2022-12-07T02:25:14;7.90;78.70
44607;DHT22;30315;46.072;14.474;2022-12-07T02:27:46;7.90;78.70
44607;DHT22;30315;46.072;14.474;2022-12-07T02:30:16;7.90;78.60
44607;DHT22;30315;46.072;14.474;2022-12-07T02:35:40;7.90;78.50
44607;DHT22;30315;46.072;14.474;2022-12-07T02:39:02;7.90;78.80
44607;DHT22;30315;46.072;14.474;2022-12-07T02:44:03;7.90;78.30
44607;DHT22;30315;46.072;14.474;2022-12-07T02:46:42;7.90;78.30
44607;DHT22;30315;46.072;14.474;2022-12-07T02:49:11;8.20;78.20
44607;DHT22;30315;46.072;14.474;2022-12-07T02:51:42;7.90;78.10
44607;DHT22;30315;46.072;14.474;2022-12-07T02:54:15;7.70;78.00
44607;DHT22;30315;46.072;14.474;2022-12-07T02:59:58;7.90;78.00
44607;DHT22;30315;46.072;14.474;2022-12-07T03:08:21;7.90;78.20
44607;DHT22;30315;46.072;14.474;2022-12-07T03:11:00;7.90;78.10
44607;DHT22;30315;46.072;14.474;2022-12-07T03:16:27;7.90;76.90
44607;DHT22;30315;46.072;14.474;2022-12-07T03:18:59;7.90;77.20
44607;DHT22;30315;46.072;14.474;2022-12-07T03:22:15;7.90;77.00
44607;DHT22;30315;46.072;14.474;2022-12-07T03:24:24;7.80;77.10
44607;DHT22;30315;46.072;14.474;2022-12-07T03:27:21;8.00;77.40
44607;DHT22;30315;46.072;14.474;2022-12-07T03:29:55;7.80;76.90
44607;DHT22;30315;46.072;14.474;2022-12-07T03:35:35;7.90;77.80
44607;DHT22;30315;46.072;14.474;2022-12-07T03:38:17;7.80;77.00
44607;DHT22;30315;46.072;14.474;2022-12-07T03:40:49;7.80;77.30
44607;DHT22;30315;46.072;14.474;2022-12-07T03:43:18;7.80;77.40
44607;DHT22;30315;46.072;14.474;2022-12-07T03:48:36;7.90;78.20
44607;DHT22;30315;46.072;14.474;2022-12-07T03:51:42;7.90;77.80
44607;DHT22;30315;46.072;14.474;2022-12-07T03:57:08;7.90;77.10
44607;DHT22;30315;46.072;14.474;2022-12-07T03:59:37;8.10;76.80
44607;DHT22;30315;46.072;14.474;2022-12-07T04:02:06;7.90;76.50
44607;DHT22;30315;46.072;14.474;2022-12-07T04:04:34;8.10;77.10
44607;DHT22;30315;46.072;14.474;2022-12-07T04:07:01;7.90;76.90
44607;DHT22;30315;46.072;14.474;2022-12-07T04:09:28;7.90;77.30
44607;DHT22;30315;46.072;14.474;2022-12-07T04:11:55;7.90;76.70
44607;DHT22;30315;46.072;14.474;2022-12-07T04:14:22;8.00;76.60
44607;DHT22;30315;46.072;14.474;2022-12-07T04:16:52;8.00;76.50
44607;DHT22;30315;46.072;14.474;2022-12-07T04:19:20;7.90;75.60
44607;DHT22;30315;46.072;14.474;2022-12-07T04:21:48;7.90;75.40
44607;DHT22;30315;46.072;14.474;2022-12-07T04:24:17;7.80;75.10
44607;DHT22;30315;46.072;14.474;2022-12-07T04:26:45;7.80;76.10
44607;DHT22;30315;46.072;14.474;2022-12-07T04:29:14;7.90;75.20
44607;DHT22;30315;46.072;14.474;2022-12-07T04:31:41;7.90;74.70
44607;DHT22;30315;46.072;14.474;2022-12-07T04:34:09;7.70;74.80
44607;DHT22;30315;46.072;14.474;2022-12-07T04:36:37;7.80;75.20
44607;DHT22;30315;46.072;14.474;2022-12-07T04:39:06;7.80;75.40
44607;DHT22;30315;46.072;14.474;2022-12-07T04:41:34;7.80;75.80
44607;DHT22;30315;46.072;14.474;2022-12-07T04:44:02;7.70;75.80
44607;DHT22;30315;46.072;14.474;2022-12-07T04:46:31;7.70;76.30
44607;DHT22;30315;46.072;14.474;2022-12-07T04:48:58;7.80;76.30
44607;DHT22;30315;46.072;14.474;2022-12-07T04:51:28;7.80;75.70
44607;DHT22;30315;46.072;14.474;2022-12-07T04:53:56;7.80;75.30
44607;DHT22;30315;46.072;14.474;2022-12-07T04:56:24;7.90;75.10
44607;DHT22;30315;46.072;14.474;2022-12-07T04:58:53;8.20;75.30
44607;DHT22;30315;46.072;14.474;2022-12-07T05:01:21;8.20;75.30
44607;DHT22;30315;46.072;14.474;2022-12-07T05:03:48;7.80;74.30
44607;DHT22;30315;46.072;14.474;2022-12-07T05:06:15;7.70;74.30
44607;DHT22;30315;46.072;14.474;2022-12-07T05:08:43;7.70;74.10
44607;DHT22;30315;46.072;14.474;2022-12-07T05:11:10;7.70;73.70
44607;DHT22;30315;46.072;14.474;2022-12-07T05:13:59;7.50;73.70
44607;DHT22;30315;46.072;14.474;2022-12-07T05:17:05;7.50;73.70
44607;DHT22;30315;46.072;14.474;2022-12-07T05:19:32;7.90;74.50
44607;DHT22;30315;46.072;14.474;2022-12-07T05:21:59;7.70;74.40
44607;DHT22;30315;46.072;14.474;2022-12-07T05:24:27;7.70;74.50
44607;DHT22;30315;46.072;14.474;2022-12-07T05:26:54;7.60;75.10
44607;DHT22;30315;46.072;14.474;2022-12-07T05:29:21;7.50;74.40
44607;DHT22;30315;46.072;14.474;2022-12-07T05:31:48;7.40;74.00
44607;DHT22;30315;46.072;14.474;2022-12-07T05:34:16;7.50;74.20
44607;DHT22;30315;46.072;14.474;2022-12-07T05:36:43;7.50;74.40
44607;DHT22;30315;46.072;14.474;2022-12-07T05:39:10;7.60;74.70
44607;DHT22;30315;46.072;14.474;2022-12-07T05:41:38;7.50;74.30
44607;DHT22;30315;46.072;14.474;2022-12-07T05:44:36;7.50;73.40
44607;DHT22;30315;46.072;14.474;2022-12-07T05:47:03;7.60;74.20
44607;DHT22;30315;46.072;14.474;2022-12-07T05:49:30;7.50;74.40
44607;DHT22;30315;46.072;14.474;2022-12-07T05:51:58;7.70;74.70
44607;DHT22;30315;46.072;14.474;2022-12-07T05:54:25;7.70;74.10
44607;DHT22;30315;46.072;14.474;2022-12-07T05:56:52;7.50;74.10
44607;DHT22;30315;46.072;14.474;2022-12-07T05:59:19;7.60;74.00
44607;DHT22;30315;46.072;14.474;2022-12-07T06:04:27;7.60;74.20
44607;DHT22;30315;46.072;14.474;2022-12-07T06:06:55;7.60;73.50
44607;DHT22;30315;46.072;14.474;2022-12-07T06:09:23;7.60;74.00
44607;DHT22;30315;46.072;14.474;2022-12-07T06:11:50;7.60;73.90
44607;DHT22;30315;46.072;14.474;2022-12-07T06:14:38;7.70;74.00
44607;DHT22;30315;46.072;14.474;2022-12-07T06:17:08;7.60;73.70
44607;DHT22;30315;46.072;14.474;2022-12-07T06:19:36;7.70;73.90
44607;DHT22;30315;46.072;14.474;2022-12-07T06:22:03;7.60;74.00
44607;DHT22;30315;46.072;14.474;2022-12-07T06:24:35;7.70;74.30
44607;DHT22;30315;46.072;14.474;2022-12-07T06:27:03;7.70;74.20
44607;DHT22;30315;46.072;14.474;2022-12-07T06:29:31;7.70;73.90
44607;DHT22;30315;46.072;14.474;2022-12-07T06:31:58;8.00;73.90
44607;DHT22;30315;46.072;14.474;2022-12-07T06:34:26;7.90;73.50
44607;DHT22;30315;46.072;14.474;2022-12-07T06:36:54;7.70;73.60
44607;DHT22;30315;46.072;14.474;2022-12-07T06:39:24;7.60;73.80
44607;DHT22;30315;46.072;14.474;2022-12-07T06:41:51;7.70;74.00
44607;DHT22;30315;46.072;14.474;2022-12-07T06:44:18;7.70;74.30
44607;DHT22;30315;46.072;14.474;2022-12-07T06:46:46;7.80;74.50
44607;DHT22;30315;46.072;14.474;2022-12-07T06:49:13;8.00;75.10
44607;DHT22;30315;46.072;14.474;2022-12-07T06:51:40;7.80;74.90
44607;DHT22;30315;46.072;14.474;2022-12-07T06:54:12;7.80;74.60
44607;DHT22;30315;46.072;14.474;2022-12-07T06:56:40;8.20;75.20
44607;DHT22;30315;46.072;14.474;2022-12-07T06:59:07;8.10;74.90
44607;DHT22;30315;46.072;14.474;2022-12-07T07:01:35;7.80;74.90
44607;DHT22;30315;46.072;14.474;2022-12-07T07:04:02;7.90;75.20
44607;DHT22;30315;46.072;14.474;2022-12-07T07:06:31;7.90;74.90
44607;DHT22;30315;46.072;14.474;2022-12-07T07:08:58;8.10;75.30
44607;DHT22;30315;46.072;14.474;2022-12-07T07:11:25;7.90;75.10
44607;DHT22;30315;46.072;14.474;2022-12-07T07:13:51;7.90;75.40
44607;DHT22;30315;46.072;14.474;2022-12-07T07:16:18;7.90;75.20
44607;DHT22;30315;46.072;14.474;2022-12-07T07:18:45;7.90;74.60
44607;DHT22;30315;46.072;14.474;2022-12-07T07:21:12;7.90;74.70
44607;DHT22;30315;46.072;14.474;2022-12-07T07:23:39;7.90;74.70
44607;DHT22;30315;46.072;14.474;2022-12-07T07:26:06;7.90;74.50
44607;DHT22;30315;46.072;14.474;2022-12-07T07:28:34;7.80;74.20
44607;DHT22;30315;46.072;14.474;2022-12-07T07:31:01;7.90;75.10
44607;DHT22;30315;46.072;14.474;2022-12-07T07:33:28;7.90;74.00
44607;DHT22;30315;46.072;14.474;2022-12-07T07:35:55;7.90;74.60
44607;DHT22;30315;46.072;14.474;2022-12-07T07:38:22;7.90;74.30
44607;DHT22;30315;46.072;14.474;2022-12-07T07:40:48;7.90;74.00
44607;DHT22;30315;46.072;14.474;2022-12-07T07:43:16;7.80;73.70
44607;DHT22;30315;46.072;14.474;2022-12-07T07:45:42;7.90;73.70
44607;DHT22;30315;46.072;14.474;2022-12-07T07:48:10;7.70;73.60
44607;DHT22;30315;46.072;14.474;2022-12-07T07:50:37;7.90;72.80
44607;DHT22;30315;46.072;14.474;2022-12-07T07:53:04;7.80;72.90
44607;DHT22;30315;46.072;14.474;2022-12-07T07:55:31;7.80;73.30
44607;DHT22;30315;46.072;14.474;2022-12-07T07:57:58;7.70;73.40
44607;DHT22;30315;46.072;14.474;2022-12-07T08:00:25;7.70;72.80
44607;DHT22;30315;46.072;14.474;2022-12-07T08:02:53;7.70;73.00
44607;DHT22;30315;46.072;14.474;2022-12-07T08:05:20;7.90;73.10
44607;DHT22;30315;46.072;14.474;2022-12-07T08:07:47;8.00;72.80
44607;DHT22;30315;46.072;14.474;2022-12-07T08:10:14;7.60;72.60
44607;DHT22;30315;46.072;14.474;2022-12-07T08:12:42;7.70;73.20
44607;DHT22;30315;46.072;14.474;2022-12-07T08:15:30;7.60;72.90
44607;DHT22;30315;46.072;14.474;2022-12-07T08:17:58;7.50;72.60
44607;DHT22;30315;46.072;14.474;2022-12-07T08:20:25;7.60;72.80
44607;DHT22;30315;46.072;14.474;2022-12-07T08:22:52;7.60;73.20
44607;DHT22;30315;46.072;14.474;2022-12-07T08:25:19;7.60;72.90
44607;DHT22;30315;46.072;14.474;2022-12-07T08:27:46;7.60;73.10
44607;DHT22;30315;46.072;14.474;2022-12-07T08:30:13;7.70;73.60
44607;DHT22;30315;46.072;14.474;2022-12-07T08:32:40;7.70;73.40
44607;DHT22;30315;46.072;14.474;2022-12-07T08:35:07;7.60;72.90
44607;DHT22;30315;46.072;14.474;2022-12-07T08:37:34;7.70;73.20
44607;DHT22;30315;46.072;14.474;2022-12-07T08:40:02;7.80;73.30
44607;DHT22;30315;46.072;14.474;2022-12-07T08:42:29;7.70;72.30
44607;DHT22;30315;46.072;14.474;2022-12-07T08:45:09;7.70;72.00
44607;DHT22;30315;46.072;14.474;2022-12-07T08:47:47;7.70;71.50
44607;DHT22;30315;46.072;14.474;2022-12-07T08:50:17;7.60;70.40
44607;DHT22;30315;46.072;14.474;2022-12-07T08:52:47;7.60;71.00
44607;DHT22;30315;46.072;14.474;2022-12-07T08:55:15;7.60;70.80
44607;DHT22;30315;46.072;14.474;2022-12-07T08:57:42;7.60;70.80
44607;DHT22;30315;46.072;14.474;2022-12-07T09:00:10;7.80;70.40
44607;DHT22;30315;46.072;14.474;2022-12-07T09:02:37;7.60;71.20
44607;DHT22;30315;46.072;14.474;2022-12-07T09:05:07;7.90;71.10
44607;DHT22;30315;46.072;14.474;2022-12-07T09:07:43;7.60;70.70
44607;DHT22;30315;46.072;14.474;2022-12-07T09:10:17;7.70;70.90
44607;DHT22;30315;46.072;14.474;2022-12-07T09:12:44;7.80;70.80
44607;DHT22;30315;46.072;14.474;2022-12-07T09:15:12;7.80;70.70
44607;DHT22;30315;46.072;14.474;2022-12-07T09:17:39;7.90;70.90
44607;DHT22;30315;46.072;14.474;2022-12-07T09:20:06;7.90;71.30
44607;DHT22;30315;46.072;14.474;2022-12-07T09:22:33;8.10;71.20
44607;DHT22;30315;46.072;14.474;2022-12-07T09:25:01;8.10;70.50
44607;DHT22;30315;46.072;14.474;2022-12-07T09:27:28;8.20;70.40
44607;DHT22;30315;46.072;14.474;2022-12-07T09:29:55;8.20;70.40
44607;DHT22;30315;46.072;14.474;2022-12-07T09:32:23;8.60;71.00
44607;DHT22;30315;46.072;14.474;2022-12-07T09:34:50;8.40;70.80
44607;DHT22;30315;46.072;14.474;2022-12-07T09:37:17;8.50;70.30
44607;DHT22;30315;46.072;14.474;2022-12-07T09:39:44;8.30;70.00
44607;DHT22;30315;46.072;14.474;2022-12-07T09:42:37;8.60;70.40
44607;DHT22;30315;46.072;14.474;2022-12-07T09:45:14;8.70;70.60
44607;DHT22;30315;46.072;14.474;2022-12-07T09:47:42;8.80;70.60
44607;DHT22;30315;46.072;14.474;2022-12-07T09:50:21;8.90;70.80
44607;DHT22;30315;46.072;14.474;2022-12-07T09:52:50;9.00;70.80
44607;DHT22;30315;46.072;14.474;2022-12-07T09:55:26;9.00;70.40
44607;DHT22;30315;46.072;14.474;2022-12-07T09:57:54;9.00;70.20
44607;DHT22;30315;46.072;14.474;2022-12-07T10:00:23;9.00;70.40
44607;DHT22;30315;46.072;14.474;2022-12-07T10:02:56;9.10;70.70
44607;DHT22;30315;46.072;14.474;2022-12-07T10:05:30;9.00;70.60
44607;DHT22;30315;46.072;14.474;2022-12-07T10:07:59;9.00;71.00
44607;DHT22;30315;46.072;14.474;2022-12-07T10:10:30;9.00;71.10
44607;DHT22;30315;46.072;14.474;2022-12-07T10:13:07;9.00;71.40
44607;DHT22;30315;46.072;14.474;2022-12-07T10:15:55;9.00;71.70
44607;DHT22;30315;46.072;14.474;2022-12-07T10:18:40;9.10;72.10
44607;DHT22;30315;46.072;14.474;2022-12-07T10:23:40;9.10;72.50
44607;DHT22;30315;46.072;14.474;2022-12-07T10:26:32;9.10;72.60
44607;DHT22;30315;46.072;14.474;2022-12-07T10:29:32;9.20;72.80
44607;DHT22;30315;46.072;14.474;2022-12-07T10:32:08;9.30;72.70
44607;DHT22;30315;46.072;14.474;2022-12-07T10:34:50;9.30;72.70
44607;DHT22;30315;46.072;14.474;2022-12-07T10:37:19;9.20;72.90
44607;DHT22;30315;46.072;14.474;2022-12-07T10:39:52;9.40;73.50
44607;DHT22;30315;46.072;14.474;2022-12-07T10:42:20;9.50;74.20
44607;DHT22;30315;46.072;14.474;2022-12-07T10:44:49;9.60;75.40
44607;DHT22;30315;46.072;14.474;2022-12-07T10:53:26;9.90;76.30
44607;DHT22;30315;46.072;14.474;2022-12-07T10:56:27;10.00;73.40
44607;DHT22;30315;46.072;14.474;2022-12-07T11:01:57;10.00;70.70
44607;DHT22;30315;46.072;14.474;2022-12-07T11:13:04;10.10;70.60
44607;DHT22;30315;46.072;14.474;2022-12-07T11:15:55;10.10;70.60
44607;DHT22;30315;46.072;14.474;2022-12-07T11:24:19;10.30;70.40
44607;DHT22;30315;46.072;14.474;2022-12-07T11:35:45;10.50;70.30
44607;DHT22;30315;46.072;14.474;2022-12-07T11:37:39;10.40;69.80
44607;DHT22;30315;46.072;14.474;2022-12-07T11:42:42;10.40;69.30
44607;DHT22;30315;46.072;14.474;2022-12-07T11:45:17;10.40;70.00
44607;DHT22;30315;46.072;14.474;2022-12-07T11:47:51;10.50;70.50
44607;DHT22;30315;46.072;14.474;2022-12-07T11:50:25;10.50;70.40
44607;DHT22;30315;46.072;14.474;2022-12-07T11:57:58;10.90;70.80
44607;DHT22;30315;46.072;14.474;2022-12-07T12:00:27;11.00;70.70
44607;DHT22;30315;46.072;14.474;2022-12-07T12:03:10;11.20;70.50
44607;DHT22;30315;46.072;14.474;2022-12-07T12:05:40;11.30;69.90
44607;DHT22;30315;46.072;14.474;2022-12-07T12:08:17;11.50;69.70
44607;DHT22;30315;46.072;14.474;2022-12-07T12:11:35;11.60;69.60
44607;DHT22;30315;46.072;14.474;2022-12-07T12:20:40;11.90;67.70
44607;DHT22;30315;46.072;14.474;2022-12-07T12:23:01;11.90;67.60
44607;DHT22;30315;46.072;14.474;2022-12-07T12:25:50;11.80;67.30
44607;DHT22;30315;46.072;14.474;2022-12-07T12:28:40;11.90;67.00
44607;DHT22;30315;46.072;14.474;2022-12-07T12:33:57;12.10;66.80
44607;DHT22;30315;46.072;14.474;2022-12-07T12:46:58;12.60;65.60
44607;DHT22;30315;46.072;14.474;2022-12-07T12:51:54;12.70;64.50
44607;DHT22;30315;46.072;14.474;2022-12-07T12:54:30;12.80;64.70
44607;DHT22;30315;46.072;14.474;2022-12-07T13:02:33;12.80;65.30
44607;DHT22;30315;46.072;14.474;2022-12-07T13:18:37;13.00;65.20
44607;DHT22;30315;46.072;14.474;2022-12-07T13:26:23;13.00;65.40
44607;DHT22;30315;46.072;14.474;2022-12-07T13:31:54;12.80;64.70
44607;DHT22;30315;46.072;14.474;2022-12-07T13:34:31;12.80;65.20
44607;DHT22;30315;46.072;14.474;2022-12-07T13:37:02;12.70;65.20
44607;DHT22;30315;46.072;14.474;2022-12-07T13:39:35;12.50;65.20
44607;DHT22;30315;46.072;14.474;2022-12-07T13:42:28;12.40;65.10
44607;DHT22;30315;46.072;14.474;2022-12-07T13:44:57;12.40;65.50
44607;DHT22;30315;46.072;14.474;2022-12-07T13:47:43;12.20;65.90
44607;DHT22;30315;46.072;14.474;2022-12-07T13:50:26;12.10;65.90
44607;DHT22;30315;46.072;14.474;2022-12-07T13:52:59;11.90;65.80
44607;DHT22;30315;46.072;14.474;2022-12-07T13:55:27;11.80;66.10
44607;DHT22;30315;46.072;14.474;2022-12-07T13:57:55;11.70;66.50
44607;DHT22;30315;46.072;14.474;2022-12-07T14:00:24;11.60;66.70
44607;DHT22;30315;46.072;14.474;2022-12-07T14:05:30;11.50;67.00
44607;DHT22;30315;46.072;14.474;2022-12-07T14:08:20;11.30;67.20
44607;DHT22;30315;46.072;14.474;2022-12-07T14:13:34;11.20;67.50
44607;DHT22;30315;46.072;14.474;2022-12-07T14:18:38;11.10;68.20
44607;DHT22;30315;46.072;14.474;2022-12-07T14:21:17;11.00;68.60
44607;DHT22;30315;46.072;14.474;2022-12-07T14:24:12;10.90;68.70
44607;DHT22;30315;46.072;14.474;2022-12-07T14:26:43;10.90;69.00
44607;DHT22;30315;46.072;14.474;2022-12-07T14:31:54;10.80;69.50
44607;DHT22;30315;46.072;14.474;2022-12-07T14:34:23;10.80;69.80
44607;DHT22;30315;46.072;14.474;2022-12-07T14:36:50;10.70;69.90
44607;DHT22;30315;46.072;14.474;2022-12-07T14:39:18;10.70;70.00
44607;DHT22;30315;46.072;14.474;2022-12-07T14:41:45;10.70;70.10
44607;DHT22;30315;46.072;14.474;2022-12-07T14:44:23;10.60;70.10
44607;DHT22;30315;46.072;14.474;2022-12-07T14:47:01;10.60;70.40
44607;DHT22;30315;46.072;14.474;2022-12-07T14:49:48;10.50;70.40
44607;DHT22;30315;46.072;14.474;2022-12-07T14:52:21;10.50;70.50
44607;DHT22;30315;46.072;14.474;2022-12-07T14:55:29;10.50;70.60
44607;DHT22;30315;46.072;14.474;2022-12-07T14:57:57;10.40;71.00
44607;DHT22;30315;46.072;14.474;2022-12-07T15:00:27;10.40;71.30
44607;DHT22;30315;46.072;14.474;2022-12-07T15:02:55;10.40;71.40
44607;DHT22;30315;46.072;14.474;2022-12-07T15:05:23;10.40;71.50
44607;DHT22;30315;46.072;14.474;2022-12-07T15:07:51;10.30;71.60
44607;DHT22;30315;46.072;14.474;2022-12-07T15:10:31;10.20;71.70
44607;DHT22;30315;46.072;14.474;2022-12-07T15:12:59;10.30;72.20
44607;DHT22;30315;46.072;14.474;2022-12-07T15:15:48;10.20;72.10
44607;DHT22;30315;46.072;14.474;2022-12-07T15:18:16;10.20;72.30
44607;DHT22;30315;46.072;14.474;2022-12-07T15:20:44;10.20;72.60
44607;DHT22;30315;46.072;14.474;2022-12-07T15:23:11;10.10;72.80
44607;DHT22;30315;46.072;14.474;2022-12-07T15:25:43;10.20;72.80
44607;DHT22;30315;46.072;14.474;2022-12-07T15:28:10;10.20;72.80
44607;DHT22;30315;46.072;14.474;2022-12-07T15:30:39;10.10;73.00
44607;DHT22;30315;46.072;14.474;2022-12-07T15:33:06;10.10;73.40
44607;DHT22;30315;46.072;14.474;2022-12-07T15:35:33;10.10;73.30
44607;DHT22;30315;46.072;14.474;2022-12-07T15:38:00;10.10;73.40
44607;DHT22;30315;46.072;14.474;2022-12-07T15:40:29;10.10;73.40
44607;DHT22;30315;46.072;14.474;2022-12-07T15:42:56;10.10;73.50
44607;DHT22;30315;46.072;14.474;2022-12-07T15:45:23;10.10;73.60
44607;DHT22;30315;46.072;14.474;2022-12-07T15:47:50;10.10;73.40
44607;DHT22;30315;46.072;14.474;2022-12-07T15:50:37;10.10;73.50
44607;DHT22;30315;46.072;14.474;2022-12-07T15:53:04;10.00;73.40
44607;DHT22;30315;46.072;14.474;2022-12-07T15:55:34;10.00;73.40
44607;DHT22;30315;46.072;14.474;2022-12-07T15:58:02;10.00;73.30
44607;DHT22;30315;46.072;14.474;2022-12-07T16:00:32;10.00;73.30
44607;DHT22;30315;46.072;14.474;2022-12-07T16:02:59;9.90;74.10
44607;DHT22;30315;46.072;14.474;2022-12-07T16:05:26;9.90;74.20
44607;DHT22;30315;46.072;14.474;2022-12-07T16:07:53;10.00;73.30
44607;DHT22;30315;46.072;14.474;2022-12-07T16:10:23;9.90;74.50
44607;DHT22;30315;46.072;14.474;2022-12-07T16:12:53;9.90;74.50
44607;DHT22;30315;46.072;14.474;2022-12-07T16:15:21;9.80;74.20
44607;DHT22;30315;46.072;14.474;2022-12-07T16:17:50;9.90;74.50
44607;DHT22;30315;46.072;14.474;2022-12-07T16:20:17;10.00;73.30
44607;DHT22;30315;46.072;14.474;2022-12-07T16:22:44;9.80;74.50
44607;DHT22;30315;46.072;14.474;2022-12-07T16:25:11;9.80;74.60
44607;DHT22;30315;46.072;14.474;2022-12-07T16:27:38;9.80;74.50
44607;DHT22;30315;46.072;14.474;2022-12-07T16:30:06;9.80;74.50
44607;DHT22;30315;46.072;14.474;2022-12-07T16:32:34;9.80;74.50
44607;DHT22;30315;46.072;14.474;2022-12-07T16:35:01;9.80;74.40
44607;DHT22;30315;46.072;14.474;2022-12-07T16:37:28;9.90;74.60
44607;DHT22;30315;46.072;14.474;2022-12-07T16:39:56;9.80;74.60
44607;DHT22;30315;46.072;14.474;2022-12-07T16:42:23;9.80;74.50
44607;DHT22;30315;46.072;14.474;2022-12-07T16:44:49;9.80;74.60
44607;DHT22;30315;46.072;14.474;2022-12-07T16:47:16;9.80;74.60
44607;DHT22;30315;46.072;14.474;2022-12-07T16:49:43;9.80;74.60
44607;DHT22;30315;46.072;14.474;2022-12-07T16:52:10;9.80;74.60
44607;DHT22;30315;46.072;14.474;2022-12-07T16:54:48;9.70;74.50
44607;DHT22;30315;46.072;14.474;2022-12-07T16:57:16;9.70;74.40
44607;DHT22;30315;46.072;14.474;2022-12-07T16:59:48;9.80;74.60
44607;DHT22;30315;46.072;14.474;2022-12-07T17:02:16;9.70;74.70
44607;DHT22;30315;46.072;14.474;2022-12-07T17:04:43;9.70;75.00
44607;DHT22;30315;46.072;14.474;2022-12-07T17:07:10;9.70;75.00
44607;DHT22;30315;46.072;14.474;2022-12-07T17:09:37;9.70;75.10
44607;DHT22;30315;46.072;14.474;2022-12-07T17:12:04;9.70;75.30
44607;DHT22;30315;46.072;14.474;2022-12-07T17:14:33;9.70;75.40
44607;DHT22;30315;46.072;14.474;2022-12-07T17:17:19;9.90;75.60
44607;DHT22;30315;46.072;14.474;2022-12-07T17:19:46;9.70;75.60
44607;DHT22;30315;46.072;14.474;2022-12-07T17:22:13;9.70;75.70
44607;DHT22;30315;46.072;14.474;2022-12-07T17:24:40;9.70;76.00
44607;DHT22;30315;46.072;14.474;2022-12-07T17:27:07;9.70;76.40
44607;DHT22;30315;46.072;14.474;2022-12-07T17:29:34;9.70;76.60
44607;DHT22;30315;46.072;14.474;2022-12-07T17:32:01;9.60;76.70
44607;DHT22;30315;46.072;14.474;2022-12-07T17:34:28;9.70;77.10
44607;DHT22;30315;46.072;14.474;2022-12-07T17:36:55;9.70;77.10
44607;DHT22;30315;46.072;14.474;2022-12-07T17:39:22;9.60;77.20
44607;DHT22;30315;46.072;14.474;2022-12-07T17:41:49;9.60;78.00
44607;DHT22;30315;46.072;14.474;2022-12-07T17:44:35;9.60;77.70
44607;DHT22;30315;46.072;14.474;2022-12-07T17:47:01;9.60;77.50
44607;DHT22;30315;46.072;14.474;2022-12-07T17:49:30;9.60;77.60
44607;DHT22;30315;46.072;14.474;2022-12-07T17:51:57;9.60;77.60
44607;DHT22;30315;46.072;14.474;2022-12-07T17:54:43;9.70;78.00
44607;DHT22;30315;46.072;14.474;2022-12-07T17:57:10;9.60;78.00
44607;DHT22;30315;46.072;14.474;2022-12-07T17:59:37;9.60;78.00
44607;DHT22;30315;46.072;14.474;2022-12-07T18:02:04;9.60;78.20
44607;DHT22;30315;46.072;14.474;2022-12-07T18:04:32;9.60;78.30
44607;DHT22;30315;46.072;14.474;2022-12-07T18:06:59;9.60;78.30
44607;DHT22;30315;46.072;14.474;2022-12-07T18:09:26;9.60;78.30
44607;DHT22;30315;46.072;14.474;2022-12-07T18:11:53;9.60;78.70
44607;DHT22;30315;46.072;14.474;2022-12-07T18:14:20;9.60;78.90